createdAt,value
2018-09-19T06:08:50.545Z,236.25
2018-09-19T06:09:50.504Z,236.25
2018-09-19T06:11:44.486Z,247.50
2018-09-19T06:12:44.113Z,258.75
2018-09-19T06:14:37.788Z,270.00
2018-09-19T06:15:37.751Z,275.63
2018-09-19T06:17:31.353Z,281.25
2018-09-19T06:18:31.313Z,286.88
2018-09-19T06:19:31.308Z,286.88
2018-09-19T06:20:31.304Z,298.13
2018-09-19T06:21:32.190Z,315.00
2018-09-19T06:22:31.293Z,298.13
2018-09-19T06:23:31.286Z,303.75
2018-09-19T06:24:31.282Z,303.75
2018-09-19T06:25:31.283Z,320.63
2018-09-19T06:26:31.277Z,326.25
2018-09-19T06:27:31.269Z,331.88
2018-09-19T06:28:31.315Z,320.63
2018-09-19T06:29:31.260Z,320.63
2018-09-19T06:30:31.262Z,326.25
2018-09-19T06:31:31.252Z,337.50
2018-09-19T06:32:31.262Z,331.88
2018-09-19T06:33:31.288Z,337.50
2018-09-19T06:34:31.238Z,337.50
2018-09-19T06:35:31.232Z,343.13
2018-09-19T06:36:31.225Z,348.75
2018-09-19T06:37:31.222Z,376.88
2018-09-19T06:38:31.223Z,444.38
2018-09-19T06:39:32.200Z,607.50
2018-09-19T06:40:31.337Z,568.13
2018-09-19T06:41:31.205Z,433.13
2018-09-19T06:42:31.196Z,438.75
2018-09-19T06:43:31.203Z,376.88
2018-09-19T06:44:31.195Z,376.88
2018-09-19T06:45:31.230Z,382.50
2018-09-19T06:46:31.184Z,388.13
2018-09-19T06:47:31.176Z,410.63
2018-09-19T06:48:31.178Z,427.50
2018-09-19T06:49:31.169Z,461.25
2018-09-19T06:50:31.169Z,495.00
2018-09-19T06:51:31.169Z,433.13
2018-09-19T06:52:31.242Z,416.25
2018-09-19T06:53:31.155Z,421.88
2018-09-19T06:54:31.143Z,427.50
2018-09-19T06:55:31.145Z,433.13
2018-09-19T06:56:31.143Z,438.75
2018-09-19T06:57:31.144Z,438.75
2018-09-19T06:58:31.129Z,450.00
2018-09-19T06:59:31.170Z,478.13
2018-09-19T07:00:31.128Z,472.50
2018-09-19T07:01:31.120Z,511.88
2018-09-19T07:02:31.117Z,545.63
2018-09-19T07:03:31.105Z,472.50
2018-09-19T07:04:31.107Z,472.50
2018-09-19T07:05:31.103Z,478.13
2018-09-19T07:06:31.098Z,489.38
2018-09-19T07:07:31.102Z,489.38
2018-09-19T07:08:31.090Z,489.38
2018-09-19T07:09:31.085Z,495.00
2018-09-19T07:10:31.130Z,500.63
2018-09-19T07:11:31.076Z,506.25
2018-09-19T07:12:31.076Z,511.88
2018-09-19T07:13:31.073Z,517.50
2018-09-19T07:14:31.067Z,517.50
2018-09-19T07:15:31.060Z,523.13
2018-09-19T07:16:31.053Z,528.75
2018-09-19T07:17:31.052Z,534.38
2018-09-19T07:18:31.047Z,540.00
2018-09-19T07:19:31.054Z,556.88
2018-09-19T07:20:31.037Z,551.25
2018-09-19T07:21:31.035Z,540.00
2018-09-19T07:22:31.031Z,534.38
2018-09-19T07:23:31.024Z,528.75
2018-09-19T07:24:31.022Z,528.75
2018-09-19T07:25:31.043Z,523.13
2018-09-19T07:26:31.021Z,511.88
2018-09-19T07:27:31.015Z,523.13
2018-09-19T07:28:31.007Z,528.75
2018-09-19T07:29:31.002Z,534.38
2018-09-19T07:30:30.998Z,534.38
2018-09-19T07:31:30.995Z,534.38
2018-09-19T07:32:31.006Z,540.00
2018-09-19T07:33:30.994Z,545.63
2018-09-19T07:34:30.999Z,540.00
2018-09-19T07:35:30.985Z,545.63
2018-09-19T07:36:30.983Z,556.88
2018-09-19T07:37:30.974Z,540.00
2018-09-19T07:38:30.970Z,540.00
2018-09-19T07:39:30.965Z,545.63
2018-09-19T07:40:30.979Z,556.88
2018-09-19T07:41:30.964Z,562.50
2018-09-19T07:42:30.954Z,568.13
2018-09-19T07:43:30.949Z,568.13
2018-09-19T07:44:30.976Z,579.38
2018-09-19T07:45:30.946Z,573.75
2018-09-19T07:46:30.981Z,579.38
2018-09-19T07:47:30.943Z,573.75
2018-09-19T07:48:30.985Z,573.75
2018-09-19T07:49:30.929Z,579.38
2018-09-19T07:50:31.033Z,579.38
2018-09-19T07:51:30.918Z,585.00
2018-09-19T07:52:30.942Z,585.00
2018-09-19T07:53:30.914Z,601.88
2018-09-19T07:54:30.958Z,601.88
2018-09-19T07:55:31.015Z,607.50
2018-09-19T07:56:30.940Z,613.13
2018-09-19T07:57:30.898Z,618.75
2018-09-19T07:58:30.897Z,624.38
2018-09-19T07:59:30.891Z,618.75
2018-09-19T08:00:30.971Z,624.38
2018-09-19T08:01:30.890Z,635.63
2018-09-19T08:02:30.889Z,635.63
2018-09-19T08:03:30.879Z,641.25
2018-09-19T08:04:30.911Z,646.88
2018-09-19T08:05:30.875Z,652.50
2018-09-19T08:06:30.869Z,658.13
2018-09-19T08:07:30.865Z,658.13
2018-09-19T08:08:30.901Z,663.75
2018-09-19T08:09:30.861Z,675.00
2018-09-19T08:10:30.873Z,686.25
2018-09-19T08:11:30.854Z,697.50
2018-09-19T08:12:30.859Z,697.50
2018-09-19T08:13:30.845Z,714.38
2018-09-19T08:14:30.894Z,714.38
2018-09-19T08:15:30.845Z,725.63
2018-09-19T08:16:30.859Z,736.88
2018-09-19T08:17:30.840Z,753.75
2018-09-19T08:18:30.861Z,770.63
2018-09-19T08:19:30.826Z,781.88
2018-09-19T08:20:30.820Z,793.13
2018-09-19T08:21:30.825Z,804.38
2018-09-19T08:22:30.874Z,781.88
2018-09-19T08:23:30.820Z,787.50
2018-09-19T08:24:30.811Z,793.13
2018-09-19T08:25:30.810Z,798.75
2018-09-19T08:26:30.831Z,815.63
2018-09-19T08:27:30.800Z,866.25
2018-09-19T08:28:30.804Z,939.38
2018-09-19T08:29:30.807Z,894.38
2018-09-19T08:30:30.800Z,866.25
2018-09-19T08:31:30.799Z,1029.38
2018-09-19T08:32:30.792Z,1164.38
2018-09-19T08:33:30.789Z,1074.38
2018-09-19T08:34:30.784Z,1125.00
2018-09-19T08:35:30.779Z,1406.25
2018-09-19T08:36:30.782Z,1681.88
2018-09-19T08:37:30.781Z,2041.88
2018-09-19T08:38:30.778Z,2075.63
2018-09-19T08:39:30.773Z,2278.13
2018-09-19T08:40:30.769Z,2323.13
2018-09-19T08:41:30.763Z,2773.13
2018-09-19T08:42:30.765Z,4235.63
2018-09-19T08:43:30.759Z,4134.38
2018-09-19T08:44:30.759Z,3870.00
2018-09-19T08:45:30.757Z,3881.25
2018-09-19T08:46:30.762Z,4078.13
2018-09-19T08:47:30.760Z,4201.88
2018-09-19T08:48:30.753Z,4466.25
2018-09-19T08:49:30.752Z,4623.75
2018-09-19T08:50:30.808Z,4708.13
2018-09-19T08:51:30.754Z,4786.88
2018-09-19T08:52:30.760Z,4612.50
2018-09-19T08:53:30.753Z,4477.50
2018-09-19T08:54:30.758Z,4545.00
2018-09-19T08:55:32.279Z,4404.38
2018-09-19T08:56:30.755Z,4230.00
2018-09-19T08:57:30.762Z,4336.88
2018-09-19T08:58:30.774Z,4449.38
2018-09-19T08:59:30.787Z,4623.75
2018-09-19T09:00:30.766Z,4753.13
2018-09-19T09:01:30.765Z,4798.13
2018-09-19T09:02:30.767Z,4893.75
2018-09-19T09:03:30.768Z,4972.50
2018-09-19T09:04:30.768Z,4899.38
2018-09-19T09:05:30.774Z,4961.25
2018-09-19T09:06:30.780Z,4927.50
2018-09-19T09:07:30.779Z,4843.13
2018-09-19T09:08:30.788Z,4730.63
2018-09-19T09:09:30.785Z,4702.50
2018-09-19T09:10:30.793Z,4719.38
2018-09-19T09:11:30.808Z,4741.88
2018-09-19T09:12:30.804Z,4584.38
2018-09-19T09:13:30.823Z,4668.75
2018-09-19T09:14:30.811Z,4905.00
2018-09-19T09:15:30.813Z,5000.63
2018-09-19T09:16:30.812Z,5023.13
2018-09-19T09:17:30.818Z,4927.50
2018-09-19T09:18:30.822Z,4556.25
2018-09-19T09:19:30.830Z,4415.63
2018-09-19T09:20:30.840Z,4826.25
2018-09-19T09:21:30.835Z,5062.50
2018-09-19T09:22:30.842Z,4770.00
2018-09-19T09:23:30.840Z,4668.75
2018-09-19T09:24:30.843Z,4730.63
2018-09-19T09:25:30.854Z,4933.13
2018-09-19T09:26:30.854Z,5101.88
2018-09-19T09:27:30.864Z,4983.75
2018-09-19T09:28:30.869Z,4860.00
2018-09-19T09:29:30.868Z,4899.38
2018-09-19T09:30:30.871Z,4786.88
2018-09-19T09:31:30.881Z,4854.38
2018-09-19T09:32:30.878Z,4972.50
2018-09-19T09:33:30.938Z,4820.63
2018-09-19T09:34:30.897Z,4691.25
2018-09-19T09:35:30.899Z,4668.75
2018-09-19T09:36:30.903Z,4033.13
2018-09-19T09:37:30.908Z,4280.63
2018-09-19T09:38:30.933Z,4426.88
2018-09-19T09:39:30.916Z,4719.38
2018-09-19T09:40:30.992Z,4606.88
2018-09-19T09:41:30.932Z,4471.88
2018-09-19T09:42:30.930Z,4691.25
2018-09-19T09:43:30.955Z,4882.50
2018-09-19T09:44:30.941Z,4657.50
2018-09-19T09:45:30.943Z,4725.00
2018-09-19T09:46:30.951Z,4905.00
2018-09-19T09:47:30.956Z,2930.63
2018-09-19T09:48:30.961Z,2137.50
2018-09-19T09:49:30.976Z,1800.00
2018-09-19T09:50:31.016Z,1861.88
2018-09-19T09:51:30.980Z,1575.00
2018-09-19T09:52:30.986Z,4893.75
2018-09-19T09:54:31.003Z,4691.25
2018-09-19T09:55:31.001Z,4871.25
2018-09-19T09:56:31.007Z,4933.13
2018-09-19T09:57:31.009Z,4488.75
2018-09-19T09:58:31.017Z,4218.75
2018-09-19T09:59:31.016Z,4213.13
2018-09-19T10:00:31.022Z,4134.38
2018-09-19T10:01:31.027Z,4516.88
2018-09-19T10:02:31.036Z,4421.25
2018-09-19T10:03:31.046Z,4252.50
2018-09-19T10:04:31.044Z,4173.75
2018-09-19T10:05:31.049Z,4410.00
2018-09-19T10:06:31.094Z,4533.75
2018-09-19T10:07:31.057Z,4443.75
2018-09-19T10:08:31.064Z,4089.38
2018-09-19T10:09:31.068Z,4044.38
2018-09-19T10:10:31.079Z,4590.00
2018-09-19T10:11:31.081Z,4725.00
2018-09-19T10:12:31.089Z,4713.75
2018-09-19T10:13:31.101Z,4539.38
2018-09-19T10:14:31.097Z,4601.25
2018-09-19T10:15:31.098Z,4674.38
2018-09-19T10:16:31.105Z,4297.50
2018-09-19T10:17:31.118Z,2700.00
2018-09-19T10:18:31.116Z,4550.63
2018-09-19T10:19:31.129Z,4286.25
2018-09-19T10:20:31.126Z,4483.13
2018-09-19T10:21:31.138Z,4578.75
2018-09-19T10:22:31.139Z,4916.25
2018-09-19T10:23:31.143Z,4843.13
2018-09-19T10:24:31.153Z,4775.63
2018-09-19T10:25:31.156Z,4545.00
2018-09-19T10:26:31.161Z,5096.25
2018-09-19T10:27:31.167Z,5135.63
2018-09-19T10:28:31.207Z,5051.25
2018-09-19T10:29:31.199Z,5040.00
2018-09-19T10:30:31.195Z,2812.50
2018-09-19T10:31:31.195Z,1338.75
2018-09-19T10:32:31.204Z,1231.88
2018-09-19T10:33:31.205Z,2137.50
2018-09-19T10:34:31.212Z,2008.13
2018-09-19T10:35:31.250Z,5051.25
2018-09-19T10:36:31.225Z,5017.50
2018-09-19T10:37:31.234Z,4455.00
2018-09-19T10:38:31.278Z,4826.25
2018-09-19T10:39:31.240Z,4843.13
2018-09-19T10:40:31.244Z,4736.25
2018-09-19T10:41:31.858Z,4680.00
2018-09-19T10:42:31.270Z,4781.25
2018-09-19T10:43:31.265Z,4843.13
2018-09-19T10:44:31.863Z,2750.63
2018-09-19T10:45:31.276Z,5101.88
2018-09-19T10:46:31.285Z,4162.50
2018-09-19T10:47:31.287Z,4196.25
2018-09-19T10:48:31.296Z,1046.25
2018-09-19T10:49:31.365Z,950.63
2018-09-19T10:50:31.316Z,1119.38
2018-09-19T10:51:31.310Z,1243.13
2018-09-19T10:52:31.318Z,1378.13
2018-09-19T10:53:31.355Z,1546.88
2018-09-19T10:54:31.336Z,1361.25
2018-09-19T10:55:31.375Z,4702.50
2018-09-19T10:56:31.339Z,1141.88
2018-09-19T10:57:31.348Z,4359.38
2018-09-19T10:58:31.350Z,1299.38
2018-09-19T10:59:31.354Z,1305.00
2018-09-19T11:00:31.367Z,4674.38
2018-09-19T11:01:31.366Z,4798.13
2018-09-19T11:02:31.375Z,4820.63
2018-09-19T11:03:31.372Z,4528.13
2018-09-19T11:04:31.380Z,2075.63
2018-09-19T11:05:31.385Z,4466.25
2018-09-19T11:06:31.399Z,4685.63
2018-09-19T11:07:31.394Z,3240.00
2018-09-19T11:08:31.416Z,2874.38
2018-09-19T11:09:31.430Z,1141.88
2018-09-19T11:10:31.413Z,1434.38
2018-09-19T11:11:31.416Z,2745.00
2018-09-19T11:12:31.430Z,4201.88
2018-09-19T11:13:31.420Z,4460.63
2018-09-19T11:14:31.444Z,3836.25
2018-09-19T11:15:31.433Z,1198.13
2018-09-19T11:16:31.500Z,3695.63
2018-09-19T11:17:31.466Z,1665.00
2018-09-19T11:18:31.445Z,2913.75
2018-09-19T11:19:31.448Z,1389.38
2018-09-19T11:20:31.454Z,3723.75
2018-09-19T11:21:31.466Z,1665.00
2018-09-19T11:22:31.465Z,1406.25
2018-09-19T11:23:31.466Z,2868.75
2018-09-19T11:24:31.474Z,2081.25
2018-09-19T11:25:31.475Z,4061.25
2018-09-19T11:26:31.553Z,3414.38
2018-09-19T11:27:31.489Z,1530.00
2018-09-19T11:28:31.489Z,3695.63
2018-09-19T11:29:31.493Z,1704.38
2018-09-19T11:30:31.502Z,2733.75
2018-09-19T11:31:31.502Z,2638.13
2018-09-19T11:32:31.516Z,3504.38
2018-09-19T11:33:31.516Z,3886.88
2018-09-19T11:34:31.517Z,3560.63
2018-09-19T11:35:31.517Z,3825.00
2018-09-19T11:36:31.524Z,1428.75
2018-09-19T11:37:31.533Z,2098.13
2018-09-19T11:38:31.539Z,2036.25
2018-09-19T11:39:31.539Z,3723.75
2018-09-19T11:40:31.543Z,2902.50
2018-09-19T11:41:31.546Z,1670.63
2018-09-19T11:42:31.558Z,3054.38
2018-09-19T11:43:31.565Z,1316.25
2018-09-19T11:44:31.567Z,1586.25
2018-09-19T11:45:31.582Z,3414.38
2018-09-19T11:46:31.573Z,3211.88
2018-09-19T11:47:31.575Z,3391.88
2018-09-19T11:48:31.583Z,3268.13
2018-09-19T11:49:31.588Z,3240.00
2018-09-19T11:50:31.590Z,3420.00
2018-09-19T11:51:31.591Z,3273.75
2018-09-19T11:52:31.597Z,3296.25
2018-09-19T11:53:31.603Z,3189.38
2018-09-19T11:54:31.608Z,3206.25
2018-09-19T11:55:31.611Z,3296.25
2018-09-19T11:56:31.620Z,1305.00
2018-09-19T11:57:31.627Z,3200.63
2018-09-19T11:58:31.629Z,3043.13
2018-09-19T11:59:31.633Z,3088.13
2018-09-19T12:00:31.642Z,2908.13
2018-09-19T12:01:31.642Z,2930.63
2018-09-19T12:02:31.647Z,2773.13
2018-09-19T12:03:31.654Z,3076.88
2018-09-19T12:04:31.663Z,1327.50
2018-09-19T12:05:31.667Z,2711.25
2018-09-19T12:06:31.670Z,1406.25
2018-09-19T12:07:31.676Z,3195.00
2018-09-19T12:08:31.681Z,3020.63
2018-09-19T12:09:31.687Z,2863.13
2018-09-19T12:10:31.693Z,2621.25
2018-09-19T12:11:31.698Z,2655.00
2018-09-19T12:12:31.702Z,1507.50
2018-09-19T12:13:31.706Z,1175.63
2018-09-19T12:14:31.716Z,990.00
2018-09-19T12:15:31.721Z,888.75
2018-09-19T12:16:31.726Z,2430.00
2018-09-19T12:17:31.726Z,2643.75
2018-09-19T12:18:31.740Z,2193.75
2018-09-19T12:19:31.803Z,1113.75
2018-09-19T12:20:31.748Z,860.63
2018-09-19T12:21:31.748Z,2430.00
2018-09-19T12:22:31.756Z,2750.63
2018-09-19T12:23:31.756Z,2683.13
2018-09-19T12:24:31.766Z,2418.75
2018-09-19T12:25:31.767Z,2452.50
2018-09-19T12:26:31.836Z,978.75
2018-09-19T12:27:31.774Z,1648.13
2018-09-19T12:28:31.784Z,2300.63
2018-09-19T12:29:31.790Z,2536.88
2018-09-19T12:30:31.796Z,2396.25
2018-09-19T12:31:31.794Z,1929.38
2018-09-19T12:32:31.811Z,2514.38
2018-09-19T12:33:31.804Z,2497.50
2018-09-19T12:34:31.813Z,2373.75
2018-09-19T12:35:31.812Z,1400.63
2018-09-19T12:36:31.817Z,1918.13
2018-09-19T12:37:31.820Z,2182.50
2018-09-19T12:38:31.824Z,2311.88
2018-09-19T12:39:31.859Z,1451.25
2018-09-19T12:40:31.840Z,2103.75
2018-09-19T12:41:31.840Z,2401.88
2018-09-19T12:42:31.840Z,2362.50
2018-09-19T12:43:31.843Z,1411.88
2018-09-19T12:44:31.846Z,2070.00
2018-09-19T12:45:31.862Z,1237.50
2018-09-19T12:46:31.861Z,843.75
2018-09-19T12:47:31.862Z,821.25
2018-09-19T12:48:31.868Z,821.25
2018-09-19T12:49:31.870Z,843.75
2018-09-19T12:50:31.879Z,916.88
2018-09-19T12:51:31.881Z,973.13
2018-09-19T12:52:31.883Z,2227.50
2018-09-19T12:53:31.884Z,1800.00
2018-09-19T12:54:31.898Z,838.13
2018-09-19T12:55:31.893Z,1366.88
2018-09-19T12:56:31.896Z,2058.75
2018-09-19T12:57:31.902Z,2041.88
2018-09-19T12:58:31.907Z,922.50
2018-09-19T12:59:31.913Z,1721.25
2018-09-19T13:00:31.918Z,2148.75
2018-09-19T13:01:31.917Z,2086.88
2018-09-19T13:02:31.922Z,1175.63
2018-09-19T13:03:31.931Z,1963.13
2018-09-19T13:04:31.932Z,826.88
2018-09-19T13:05:31.932Z,759.38
2018-09-19T13:06:31.939Z,708.75
2018-09-19T13:07:31.948Z,669.38
2018-09-19T13:08:31.968Z,1738.13
2018-09-19T13:09:31.948Z,922.50
2018-09-19T13:10:31.953Z,2019.38
2018-09-19T13:11:31.951Z,1023.75
2018-09-19T13:12:31.961Z,1873.13
2018-09-19T13:13:31.962Z,877.50
2018-09-19T13:14:31.969Z,855.00
2018-09-19T13:15:31.972Z,826.88
2018-09-19T13:16:31.977Z,770.63
2018-09-19T13:17:32.516Z,770.63
2018-09-19T13:18:31.985Z,1209.38
2018-09-19T13:19:31.985Z,1749.38
2018-09-19T13:20:31.989Z,1828.13
2018-09-19T13:21:31.994Z,1794.38
2018-09-19T13:22:31.997Z,1738.13
2018-09-19T13:23:32.001Z,1698.75
2018-09-19T13:24:32.006Z,1608.75
2018-09-19T13:25:32.017Z,1563.75
2018-09-19T13:26:32.033Z,1524.38
2018-09-19T13:27:32.009Z,1552.50
2018-09-19T13:28:32.015Z,1074.38
2018-09-19T13:29:32.019Z,787.50
2018-09-19T13:30:32.028Z,798.75
2018-09-19T13:31:32.029Z,1479.38
2018-09-19T13:32:32.029Z,1479.38
2018-09-19T13:33:32.036Z,1575.00
2018-09-19T13:34:32.041Z,1552.50
2018-09-19T13:35:32.035Z,1524.38
2018-09-19T13:36:32.044Z,1406.25
2018-09-19T13:37:32.047Z,1333.13
2018-09-19T13:38:32.053Z,1288.13
2018-09-19T13:39:32.055Z,1282.50
2018-09-19T13:40:32.060Z,1276.88
2018-09-19T13:41:32.060Z,1265.63
2018-09-19T13:42:32.060Z,1226.25
2018-09-19T13:43:32.063Z,1215.00
2018-09-19T13:44:32.067Z,1198.13
2018-09-19T13:45:32.073Z,1215.00
2018-09-19T13:46:32.075Z,1192.50
2018-09-19T13:47:32.138Z,1248.75
2018-09-19T13:48:32.089Z,1237.50
2018-09-19T13:49:32.099Z,1220.63
2018-09-19T13:50:32.087Z,1170.00
2018-09-19T13:51:32.093Z,1158.75
2018-09-19T13:52:32.097Z,1141.88
2018-09-19T13:53:32.101Z,1108.13
2018-09-19T13:54:32.108Z,1085.63
2018-09-19T13:55:32.106Z,1057.50
2018-09-19T13:56:32.109Z,1046.25
2018-09-19T13:57:32.113Z,1080.00
2018-09-19T13:58:32.111Z,1096.88
2018-09-19T13:59:32.116Z,1074.38
2018-09-19T14:00:32.120Z,1046.25
2018-09-19T14:01:32.125Z,1057.50
2018-09-19T14:02:32.129Z,1091.25
2018-09-19T14:03:32.128Z,1080.00
2018-09-19T14:04:32.147Z,1046.25
2018-09-19T14:05:32.136Z,1012.50
2018-09-19T14:06:32.138Z,990.00
2018-09-19T14:07:32.145Z,978.75
2018-09-19T14:08:32.144Z,978.75
2018-09-19T14:09:32.146Z,978.75
2018-09-19T14:10:32.148Z,1006.88
2018-09-19T14:11:32.150Z,1057.50
2018-09-19T14:12:32.157Z,601.88
2018-09-19T14:13:32.159Z,1006.88
2018-09-19T14:14:32.158Z,1001.25
2018-09-19T14:15:32.169Z,1018.13
2018-09-19T14:16:32.164Z,990.00
2018-09-19T14:17:32.171Z,984.38
2018-09-19T14:18:32.176Z,1074.38
2018-09-19T14:19:32.174Z,1074.38
2018-09-19T14:20:32.174Z,1018.13
2018-09-19T14:21:32.239Z,978.75
2018-09-19T14:22:32.180Z,922.50
2018-09-19T14:23:32.179Z,810.00
2018-09-19T14:24:32.184Z,641.25
2018-09-19T14:25:32.184Z,731.25
2018-09-19T14:26:33.035Z,793.13
2018-09-19T14:27:33.037Z,798.75
2018-09-19T14:28:32.272Z,551.25
2018-09-19T14:29:32.199Z,821.25
2018-09-19T14:30:32.216Z,832.50
2018-09-19T14:31:32.201Z,781.88
2018-09-19T14:32:32.213Z,798.75
2018-09-19T14:33:32.205Z,517.50
2018-09-19T14:34:32.207Z,753.75
2018-09-19T14:35:32.255Z,793.13
2018-09-19T14:36:32.215Z,776.25
2018-09-19T14:37:32.211Z,748.13
2018-09-19T14:38:32.218Z,720.00
2018-09-19T14:39:32.224Z,703.13
2018-09-19T14:40:32.221Z,663.75
2018-09-19T14:41:32.237Z,483.75
2018-09-19T14:42:32.230Z,607.50
2018-09-19T14:43:32.229Z,551.25
2018-09-19T14:44:32.231Z,461.25
2018-09-19T14:45:32.233Z,461.25
2018-09-19T14:46:32.235Z,461.25
2018-09-19T14:47:32.234Z,579.38
2018-09-19T14:48:32.328Z,450.00
2018-09-19T14:49:32.237Z,579.38
2018-09-19T14:50:32.244Z,590.63
2018-09-19T14:51:32.243Z,573.75
2018-09-19T14:52:32.243Z,433.13
2018-09-19T14:53:32.243Z,427.50
2018-09-19T14:54:32.298Z,517.50
2018-09-19T14:55:32.245Z,416.25
2018-09-19T14:56:32.983Z,405.00
2018-09-19T14:57:32.251Z,405.00
2018-09-19T14:58:32.256Z,393.75
2018-09-19T14:59:32.254Z,455.63
2018-09-19T15:00:32.257Z,517.50
2018-09-19T15:01:32.262Z,450.00
2018-09-19T15:02:32.256Z,534.38
2018-09-19T15:03:32.258Z,506.25
2018-09-19T15:04:32.261Z,500.63
2018-09-19T15:05:32.263Z,500.63
2018-09-19T15:06:32.266Z,495.00
2018-09-19T15:07:32.264Z,461.25
2018-09-19T15:08:32.266Z,517.50
2018-09-19T15:09:32.265Z,388.13
2018-09-19T15:10:32.265Z,371.25
2018-09-19T15:11:32.271Z,360.00
2018-09-19T15:12:32.271Z,393.75
2018-09-19T15:13:32.275Z,433.13
2018-09-19T15:14:32.320Z,483.75
2018-09-19T15:15:32.271Z,450.00
2018-09-19T15:16:32.271Z,478.13
2018-09-19T15:17:32.273Z,489.38
2018-09-19T15:18:32.274Z,489.38
2018-09-19T15:19:32.277Z,495.00
2018-09-19T15:20:32.285Z,472.50
2018-09-19T15:21:32.279Z,455.63
2018-09-19T15:22:32.279Z,450.00
2018-09-19T15:23:32.278Z,478.13
2018-09-19T15:24:32.281Z,455.63
2018-09-19T15:25:32.280Z,450.00
2018-09-19T15:26:32.283Z,450.00
2018-09-19T15:27:32.283Z,416.25
2018-09-19T15:28:32.304Z,461.25
2018-09-19T15:29:32.282Z,450.00
2018-09-19T15:30:32.280Z,416.25
2018-09-19T15:31:32.286Z,348.75
2018-09-19T15:32:32.283Z,343.13
2018-09-19T15:33:32.287Z,388.13
2018-09-19T15:34:32.289Z,354.38
2018-09-19T15:35:32.287Z,376.88
2018-09-19T15:36:32.291Z,348.75
2018-09-19T15:37:32.292Z,365.63
2018-09-19T15:38:32.288Z,348.75
2018-09-19T15:39:32.292Z,343.13
2018-09-19T15:40:32.293Z,331.88
2018-09-19T15:41:32.294Z,326.25
2018-09-19T15:42:32.352Z,298.13
2018-09-19T15:43:32.297Z,315.00
2018-09-19T15:44:32.293Z,337.50
2018-09-19T15:45:32.289Z,343.13
2018-09-19T15:46:32.289Z,360.00
2018-09-19T15:47:32.295Z,388.13
2018-09-19T15:48:32.381Z,388.13
2018-09-19T15:49:32.298Z,348.75
2018-09-19T15:50:32.297Z,382.50
2018-09-19T15:51:32.299Z,348.75
2018-09-19T15:52:32.298Z,331.88
2018-09-19T15:53:32.303Z,331.88
2018-09-19T15:54:32.300Z,315.00
2018-09-19T15:55:32.333Z,343.13
2018-09-19T15:56:32.297Z,326.25
2018-09-19T15:57:32.473Z,320.63
2018-09-19T15:58:32.297Z,343.13
2018-09-19T15:59:32.299Z,309.38
2018-09-19T16:00:32.300Z,303.75
2018-09-19T16:01:32.298Z,264.38
2018-09-19T16:02:32.300Z,258.75
2018-09-19T16:03:32.299Z,264.38
2018-09-19T16:04:32.299Z,270.00
2018-09-19T16:05:32.304Z,286.88
2018-09-19T16:06:32.305Z,286.88
2018-09-19T16:07:32.302Z,292.50
2018-09-19T16:08:32.307Z,292.50
2018-09-19T16:09:32.370Z,286.88
2018-09-19T16:10:32.302Z,286.88
2018-09-19T16:11:32.301Z,281.25
2018-09-19T16:12:32.303Z,275.63
2018-09-19T16:13:32.305Z,270.00
2018-09-19T16:14:32.308Z,270.00
2018-09-19T16:15:32.300Z,264.38
2018-09-19T16:16:32.303Z,247.50
2018-09-19T16:17:32.305Z,236.25
2018-09-19T16:18:32.304Z,230.63
2018-09-19T16:19:32.303Z,247.50
2018-09-19T16:20:32.303Z,241.88
2018-09-19T16:21:32.309Z,241.88
2018-09-19T16:22:32.306Z,236.25
2018-09-19T16:23:32.303Z,230.63
2018-09-19T16:24:32.303Z,225.00
2018-09-19T16:25:32.304Z,208.13
2018-09-19T16:26:32.301Z,213.75
2018-09-19T16:27:32.307Z,213.75
2018-09-19T16:28:32.329Z,196.88
2018-09-19T16:29:32.303Z,196.88
2018-09-19T16:30:32.304Z,191.25
2018-09-19T16:31:32.304Z,196.88
2018-09-19T16:32:32.304Z,191.25
2018-09-19T16:33:32.299Z,185.63
2018-09-19T16:34:32.300Z,185.63
2018-09-19T16:35:32.305Z,185.63
2018-09-19T16:36:32.302Z,191.25
2018-09-19T16:37:32.299Z,185.63
2018-09-19T16:38:32.305Z,185.63
2018-09-19T16:39:32.313Z,191.25
2018-09-19T16:40:32.298Z,191.25
2018-09-19T16:41:32.299Z,191.25
2018-09-19T16:42:32.302Z,185.63
2018-09-19T16:43:32.299Z,180.00
2018-09-19T16:44:32.346Z,168.75
2018-09-19T16:45:32.405Z,157.50
2018-09-19T16:46:32.314Z,151.88
2018-09-19T16:47:32.315Z,146.25
2018-09-19T16:48:32.294Z,135.00
2018-09-19T16:49:32.297Z,123.75
2018-09-19T16:50:32.299Z,123.75
2018-09-19T16:51:32.298Z,123.75
2018-09-19T16:52:32.294Z,123.75
2018-09-19T16:53:32.299Z,112.50
2018-09-19T16:54:32.305Z,106.88
2018-09-19T16:55:32.295Z,101.25
2018-09-19T16:56:32.593Z,95.63
2018-09-19T16:57:32.301Z,90.00
2018-09-19T16:58:32.321Z,84.38
2018-09-19T16:59:32.294Z,84.38
2018-09-19T17:00:32.301Z,78.75
2018-09-19T17:01:32.306Z,78.75
2018-09-19T17:02:32.294Z,73.13
2018-09-19T17:03:32.291Z,73.13
2018-09-19T17:04:32.291Z,73.13
2018-09-19T17:05:32.295Z,73.13
2018-09-19T17:06:32.289Z,67.50
2018-09-19T17:07:32.290Z,67.50
2018-09-19T17:08:32.295Z,67.50
2018-09-19T17:09:32.286Z,61.88
2018-09-19T17:10:32.287Z,61.88
2018-09-19T17:11:32.293Z,61.88
2018-09-19T17:12:32.291Z,56.25
2018-09-19T17:13:32.290Z,56.25
2018-09-19T17:14:32.285Z,56.25
2018-09-19T17:15:32.367Z,50.63
2018-09-19T17:16:32.289Z,50.63
2018-09-19T17:17:32.283Z,45.00
2018-09-19T17:18:32.285Z,45.00
2018-09-19T17:19:32.289Z,39.38
2018-09-19T17:20:32.282Z,39.38
2018-09-19T17:21:32.283Z,33.75
2018-09-19T17:22:32.291Z,33.75
2018-09-19T17:23:32.284Z,33.75
2018-09-19T17:24:32.281Z,28.13
2018-09-19T17:25:32.281Z,28.13
2018-09-19T17:26:32.283Z,22.50
2018-09-19T17:27:32.279Z,22.50
2018-09-19T17:28:32.279Z,22.50
2018-09-19T17:29:32.277Z,16.88
2018-09-19T17:30:32.276Z,16.88
2018-09-19T17:31:32.273Z,16.88
2018-09-19T17:32:32.269Z,16.88
2018-09-19T17:33:32.274Z,11.25
2018-09-19T17:34:32.269Z,11.25
2018-09-19T17:35:32.277Z,11.25
2018-09-19T17:36:32.271Z,11.25
2018-09-19T17:37:32.281Z,5.63
2018-09-19T17:38:32.270Z,5.63
2018-09-19T17:39:32.274Z,5.63
2018-09-19T17:40:32.264Z,5.63
2018-09-19T17:41:32.269Z,5.63
2018-09-19T17:42:32.271Z,5.63
2018-09-19T17:43:32.265Z,5.63
2018-09-19T17:44:32.266Z,0.00
2018-09-19T17:45:32.264Z,0.00
2018-09-19T17:46:32.263Z,0.00
2018-09-19T17:47:32.261Z,0.00
2018-09-19T17:48:32.263Z,0.00
2018-09-19T17:49:32.260Z,0.00
2018-09-19T17:50:32.256Z,0.00
2018-09-19T17:51:32.262Z,0.00
2018-09-19T17:52:32.255Z,0.00
2018-09-19T17:53:32.257Z,0.00
2018-09-19T17:54:32.257Z,0.00
2018-09-19T17:55:32.260Z,0.00
2018-09-19T17:56:32.283Z,0.00
2018-09-19T17:57:32.251Z,0.00
2018-09-19T17:58:32.250Z,0.00
2018-09-19T17:59:32.248Z,0.00
2018-09-19T18:00:32.247Z,0.00
2018-09-19T18:01:32.250Z,0.00
2018-09-19T18:02:32.249Z,0.00
2018-09-19T18:03:32.246Z,0.00
2018-09-19T18:04:32.245Z,0.00
2018-09-19T18:05:32.240Z,0.00
2018-09-19T18:06:32.244Z,0.00
2018-09-19T18:07:32.240Z,0.00
2018-09-19T18:08:32.245Z,0.00
2018-09-19T18:09:32.240Z,0.00
2018-09-19T18:10:32.238Z,0.00
2018-09-19T18:11:32.234Z,0.00
2018-09-19T18:12:32.270Z,0.00
2018-09-19T18:13:32.244Z,0.00
2018-09-19T18:14:32.260Z,0.00
2018-09-19T18:15:32.233Z,0.00
2018-09-19T18:16:32.231Z,0.00
2018-09-19T18:17:32.241Z,0.00
2018-09-19T18:18:32.226Z,0.00
2018-09-19T18:19:32.224Z,0.00
2018-09-19T18:20:32.227Z,0.00
2018-09-19T18:21:32.232Z,0.00
2018-09-19T18:22:34.195Z,0.00
2018-09-19T18:23:32.223Z,0.00
2018-09-19T18:24:32.216Z,0.00
2018-09-19T18:25:32.228Z,0.00
2018-09-19T18:26:32.224Z,0.00
2018-09-19T18:27:32.218Z,0.00
2018-09-19T18:28:32.218Z,0.00
2018-09-19T18:29:32.218Z,0.00
2018-09-19T18:30:32.215Z,0.00
2018-09-19T18:31:32.218Z,0.00
2018-09-19T18:32:32.213Z,0.00
2018-09-19T18:33:32.218Z,0.00
2018-09-19T18:34:32.221Z,0.00
2018-09-19T18:35:32.203Z,0.00